createdAt,value
2018-12-15T00:02:05.587Z,3.80
2018-12-15T00:04:39.327Z,3.80
2018-12-15T00:07:26.275Z,3.80
2018-12-15T00:09:58.215Z,3.80
2018-12-15T00:12:39.991Z,3.80
2018-12-15T00:15:11.950Z,3.80
2018-12-15T00:18:09.178Z,3.80
2018-12-15T00:20:40.804Z,3.80
2018-12-15T00:23:31.657Z,3.80
2018-12-15T00:26:03.479Z,3.80
2018-12-15T00:28:44.692Z,3.80
2018-12-15T00:31:16.586Z,3.80
2018-12-15T00:34:04.240Z,3.80
2018-12-15T00:36:36.114Z,3.80
2018-12-15T00:39:17.623Z,3.80
2018-12-15T00:41:49.186Z,3.80
2018-12-15T00:44:30.376Z,3.80
2018-12-15T00:47:01.895Z,3.80
2018-12-15T00:49:46.868Z,3.80
2018-12-15T00:52:18.584Z,3.80
2018-12-15T00:55:03.228Z,3.80
2018-12-15T00:57:34.863Z,3.80
2018-12-15T01:00:19.799Z,3.80
2018-12-15T01:02:51.953Z,3.80
2018-12-15T01:05:33.347Z,3.80
2018-12-15T01:08:05.379Z,3.80
2018-12-15T01:10:46.609Z,3.90
2018-12-15T01:13:18.592Z,3.80
2018-12-15T01:16:06.358Z,3.80
2018-12-15T01:18:38.263Z,3.80
2018-12-15T01:47:27.162Z,3.80
2018-12-15T01:49:58.840Z,3.70
2018-12-15T01:52:40.055Z,3.80
2018-12-15T01:55:11.783Z,3.70
2018-12-15T01:57:56.856Z,3.70
2018-12-15T02:00:28.568Z,3.70
2018-12-15T02:03:09.959Z,3.70
2018-12-15T02:05:42.156Z,3.70
2018-12-15T02:08:23.301Z,3.70
2018-12-15T02:10:57.373Z,3.70
2018-12-15T02:13:45.386Z,3.70
2018-12-15T02:16:17.399Z,3.70
2018-12-15T02:18:58.890Z,3.80
2018-12-15T02:21:30.623Z,3.70
2018-12-15T02:37:30.111Z,3.70
2018-12-15T02:40:02.047Z,3.70
2018-12-15T02:42:47.038Z,3.60
2018-12-15T02:45:18.537Z,3.60
2018-12-15T02:48:00.346Z,3.60
2018-12-15T02:50:32.240Z,3.60
2018-12-15T02:53:22.124Z,3.60
2018-12-15T02:55:54.079Z,3.60
2018-12-15T02:58:39.009Z,3.60
2018-12-15T03:01:11.075Z,3.60
2018-12-15T03:03:52.253Z,3.60
2018-12-15T03:06:24.332Z,3.60
2018-12-15T03:09:07.745Z,3.60
2018-12-15T03:11:42.102Z,3.60
2018-12-15T03:27:33.830Z,3.60
2018-12-15T03:30:05.965Z,3.50
2018-12-15T03:32:56.868Z,3.60
2018-12-15T03:35:28.520Z,3.60
2018-12-15T03:38:09.843Z,3.60
2018-12-15T03:40:41.943Z,3.50
2018-12-15T03:43:23.124Z,3.50
2018-12-15T03:45:54.947Z,3.50
2018-12-15T03:48:36.315Z,3.50
2018-12-15T03:51:08.003Z,3.50
2018-12-15T03:53:49.657Z,3.50
2018-12-15T03:56:21.570Z,3.50
2018-12-15T03:59:02.934Z,3.50
2018-12-15T04:01:35.846Z,3.50
2018-12-15T04:04:16.934Z,3.50
2018-12-15T04:06:48.696Z,3.50
2018-12-15T04:09:30.066Z,3.50
2018-12-15T04:12:01.635Z,3.60
2018-12-15T04:14:46.379Z,3.50
2018-12-15T04:17:18.196Z,3.50
2018-12-15T04:20:09.142Z,3.50
2018-12-15T04:22:41.191Z,3.50
2018-12-15T04:25:22.534Z,3.50
2018-12-15T04:27:54.219Z,3.50
2018-12-15T04:30:39.112Z,3.50
2018-12-15T04:33:10.771Z,3.50
2018-12-15T04:35:52.264Z,3.50
2018-12-15T04:38:23.985Z,3.60
2018-12-15T04:41:05.548Z,3.60
2018-12-15T04:43:37.441Z,3.60
2018-12-15T04:46:25.501Z,3.60
2018-12-15T04:48:57.104Z,3.60
2018-12-15T04:51:38.360Z,3.60
2018-12-15T04:54:09.975Z,3.60
2018-12-15T04:56:54.870Z,3.60
2018-12-15T04:59:26.793Z,3.60
2018-12-15T05:02:08.270Z,3.70
2018-12-15T05:04:39.965Z,3.60
2018-12-15T05:07:21.903Z,3.70
2018-12-15T05:09:53.561Z,3.70
2018-12-15T05:12:38.649Z,3.70
2018-12-15T05:15:10.671Z,3.60
2018-12-15T05:17:51.909Z,3.70
2018-12-15T05:20:23.891Z,3.70
2018-12-15T05:23:05.712Z,3.70
2018-12-15T05:25:37.680Z,3.70
2018-12-15T05:28:19.109Z,3.70
2018-12-15T05:30:51.049Z,3.60
2018-12-15T05:33:32.256Z,3.60
2018-12-15T05:36:04.065Z,3.60
2018-12-15T05:38:49.091Z,3.60
2018-12-15T05:41:21.090Z,3.60
2018-12-15T05:44:05.991Z,3.60
2018-12-15T05:46:37.905Z,3.60
2018-12-15T05:49:19.067Z,3.50
2018-12-15T05:51:50.977Z,3.50
2018-12-15T05:54:32.450Z,3.50
2018-12-15T05:57:05.334Z,3.60
2018-12-15T05:59:46.694Z,3.60
2018-12-15T06:02:19.208Z,3.60
2018-12-15T06:05:01.052Z,3.60
2018-12-15T06:07:32.888Z,3.60
2018-12-15T06:10:21.010Z,3.50
2018-12-15T06:12:52.759Z,3.50
2018-12-15T06:15:37.811Z,3.50
2018-12-15T06:18:09.545Z,3.50
2018-12-15T06:20:50.919Z,3.50
2018-12-15T06:23:22.937Z,3.50
2018-12-15T06:26:07.957Z,3.50
2018-12-15T06:28:40.237Z,3.50
2018-12-15T06:31:21.516Z,3.50
2018-12-15T06:33:53.310Z,3.50
2018-12-15T06:36:38.544Z,3.50
2018-12-15T06:39:10.095Z,3.50
2018-12-15T06:41:52.007Z,3.50
2018-12-15T06:44:23.995Z,3.50
2018-12-15T06:47:05.203Z,3.50
2018-12-15T06:49:37.384Z,3.50
2018-12-15T06:52:22.431Z,3.60
2018-12-15T06:54:54.171Z,3.60
2018-12-15T06:57:41.770Z,3.60
2018-12-15T07:00:13.951Z,3.50
2018-12-15T07:02:55.555Z,3.60
2018-12-15T07:05:27.206Z,3.60
2018-12-15T07:08:12.129Z,3.60
2018-12-15T07:10:43.962Z,3.50
2018-12-15T07:13:29.167Z,3.50
2018-12-15T07:16:00.843Z,3.50
2018-12-15T07:18:45.016Z,3.60
2018-12-15T07:21:16.906Z,3.60
2018-12-15T07:23:58.869Z,3.60
2018-12-15T07:26:31.127Z,3.60
2018-12-15T07:29:12.358Z,3.60
2018-12-15T07:31:44.619Z,3.60
2018-12-15T07:34:30.253Z,3.60
2018-12-15T07:37:01.794Z,3.50
2018-12-15T07:39:46.838Z,3.50
2018-12-15T07:42:18.838Z,3.50
2018-12-15T07:45:00.648Z,3.50
2018-12-15T07:47:33.114Z,3.50
2018-12-15T07:50:14.616Z,3.50
2018-12-15T07:52:46.191Z,3.50
2018-12-15T07:55:34.523Z,3.50
2018-12-15T07:58:06.585Z,3.50
2018-12-15T08:00:51.510Z,3.50
2018-12-15T08:03:23.319Z,3.50
2018-12-15T08:06:08.600Z,3.50
2018-12-15T08:08:40.204Z,3.50
2018-12-15T08:11:26.805Z,3.60
2018-12-15T08:14:04.004Z,3.50
2018-12-15T08:16:49.388Z,3.60
2018-12-15T08:19:20.951Z,3.60
2018-12-15T08:22:07.988Z,3.60
2018-12-15T08:24:40.129Z,3.60
2018-12-15T08:27:21.457Z,3.60
2018-12-15T08:29:53.035Z,3.60
2018-12-15T08:32:34.699Z,3.60
2018-12-15T08:35:06.633Z,3.60
2018-12-15T08:37:47.890Z,3.60
2018-12-15T08:40:20.127Z,3.60
2018-12-15T08:43:08.202Z,3.60
2018-12-15T08:45:41.493Z,3.70
2018-12-15T08:48:23.200Z,3.70
2018-12-15T08:50:56.473Z,3.70
2018-12-15T08:53:37.706Z,3.70
2018-12-15T08:56:09.690Z,3.70
2018-12-15T08:58:57.461Z,3.70
2018-12-15T09:01:29.339Z,3.70
2018-12-15T09:04:14.412Z,3.70
2018-12-15T09:06:46.049Z,3.70
2018-12-15T09:09:31.026Z,3.70
2018-12-15T09:12:03.006Z,3.70
2018-12-15T09:14:44.620Z,3.60
2018-12-15T09:17:19.515Z,3.60
2018-12-15T09:20:06.731Z,3.60
2018-12-15T09:22:38.790Z,3.70
2018-12-15T09:25:23.360Z,3.70
2018-12-15T09:32:43.584Z,3.70
2018-12-15T09:35:15.167Z,3.60
2018-12-15T09:37:59.809Z,3.60
2018-12-15T09:40:31.376Z,3.70
2018-12-15T09:43:35.662Z,3.70
2018-12-15T09:46:07.220Z,3.80
2018-12-15T09:48:51.754Z,3.90
2018-12-15T09:51:23.180Z,4.00
2018-12-15T10:07:27.328Z,4.10
2018-12-15T10:09:58.668Z,4.20
2018-12-15T10:12:46.373Z,4.20
2018-12-15T10:15:17.775Z,4.20
2018-12-15T10:18:02.259Z,4.20
2018-12-15T10:20:33.724Z,4.10
2018-12-15T10:36:37.803Z,4.00
2018-12-15T10:39:10.082Z,4.00
2018-12-15T10:41:57.672Z,4.00
2018-12-15T10:44:29.324Z,4.00
2018-12-15T10:47:14.000Z,4.00
2018-12-15T10:49:47.489Z,4.00
2018-12-15T10:52:32.455Z,4.00
2018-12-15T10:55:04.034Z,4.10
2018-12-15T10:57:48.791Z,4.00
2018-12-15T11:03:11.974Z,4.00
2018-12-15T11:05:43.736Z,4.00
2018-12-15T11:08:24.833Z,4.00
2018-12-15T11:10:56.315Z,4.10
2018-12-15T11:13:37.476Z,4.00
2018-12-15T11:16:09.413Z,4.10
2018-12-15T11:18:53.983Z,4.00
2018-12-15T11:21:25.447Z,4.00
2018-12-15T11:24:12.927Z,4.00
2018-12-15T11:26:44.369Z,4.00
2018-12-15T11:29:25.611Z,4.00
2018-12-15T11:31:56.996Z,4.10
2018-12-15T11:34:38.804Z,4.00
2018-12-15T11:37:10.178Z,4.10
2018-12-15T11:52:56.090Z,4.10
2018-12-15T11:55:27.711Z,4.10
2018-12-15T11:58:10.041Z,4.10
2018-12-15T12:00:41.591Z,4.10
2018-12-15T12:03:26.198Z,4.20
2018-12-15T12:05:57.612Z,4.20
2018-12-15T12:08:38.662Z,4.20
2018-12-15T12:11:10.130Z,4.20
2018-12-15T12:14:01.703Z,4.20
2018-12-15T12:16:45.525Z,4.20
2018-12-15T12:19:16.911Z,4.20
2018-12-15T12:21:48.509Z,4.20
2018-12-15T12:24:29.788Z,4.20
2018-12-15T12:27:03.272Z,4.20
2018-12-15T12:29:44.730Z,4.20
2018-12-15T12:32:16.316Z,4.20
2018-12-15T12:34:57.436Z,4.20
2018-12-15T12:37:28.979Z,4.20
2018-12-15T12:40:10.838Z,4.30
2018-12-15T12:42:42.347Z,4.20
2018-12-15T12:45:23.755Z,4.30
2018-12-15T12:47:55.325Z,4.30
2018-12-15T12:50:39.935Z,4.30
2018-12-15T12:53:11.733Z,4.30
2018-12-15T12:55:59.715Z,4.30
2018-12-15T12:58:32.408Z,4.20
2018-12-15T13:01:17.598Z,4.30
2018-12-15T13:03:49.229Z,4.30
2018-12-15T13:06:33.856Z,4.30
2018-12-15T13:09:07.954Z,4.20
2018-12-15T13:11:54.395Z,4.20
2018-12-15T13:14:26.013Z,4.30
2018-12-15T13:17:17.331Z,4.20
2018-12-15T13:19:49.164Z,4.20
2018-12-15T13:22:36.952Z,4.20
2018-12-15T13:25:08.573Z,4.20
2018-12-15T13:27:49.736Z,4.20
2018-12-15T13:30:21.653Z,4.20
2018-12-15T13:33:22.124Z,4.20
2018-12-15T13:35:53.977Z,4.20
2018-12-15T13:38:48.698Z,4.20
2018-12-15T13:41:20.468Z,4.10
2018-12-15T13:44:01.851Z,4.10
2018-12-15T13:46:34.909Z,4.10
2018-12-15T13:49:20.057Z,4.20
2018-12-15T13:51:51.677Z,4.10
2018-12-15T13:54:33.299Z,4.10
2018-12-15T13:57:05.297Z,4.10
2018-12-15T13:59:59.240Z,4.10
2018-12-15T14:02:31.246Z,4.10
2018-12-15T14:05:19.463Z,4.00
2018-12-15T14:07:51.027Z,4.00
2018-12-15T14:10:38.631Z,4.00
2018-12-15T14:13:10.372Z,4.00
2018-12-15T14:15:52.253Z,4.00
2018-12-15T14:18:23.862Z,4.00
2018-12-15T14:21:11.668Z,4.00
2018-12-15T14:23:43.677Z,4.00
2018-12-15T14:26:32.023Z,4.00
2018-12-15T14:29:05.126Z,4.00
2018-12-15T14:31:56.550Z,4.00
2018-12-15T14:34:28.824Z,4.00
2018-12-15T14:37:11.084Z,4.00
2018-12-15T14:39:43.510Z,3.90
2018-12-15T14:42:25.510Z,3.90
2018-12-15T14:44:57.527Z,3.90
2018-12-15T14:47:43.838Z,3.90
2018-12-15T14:50:16.241Z,3.90
2018-12-15T14:53:02.286Z,3.90
2018-12-15T14:55:34.945Z,3.90
2018-12-15T14:58:20.927Z,3.80
2018-12-15T15:00:56.480Z,3.80
2018-12-15T15:03:42.675Z,3.80
2018-12-15T15:06:15.531Z,3.80
2018-12-15T15:09:05.684Z,3.80
2018-12-15T15:11:39.682Z,3.80
2018-12-15T15:14:12.664Z,3.80
2018-12-15T15:17:00.112Z,3.80
2018-12-15T15:19:32.347Z,3.80
2018-12-15T15:22:18.351Z,3.80
2018-12-15T15:24:51.721Z,3.80
2018-12-15T15:27:34.893Z,3.80
2018-12-15T15:30:09.197Z,3.80
2018-12-15T15:32:54.641Z,3.80
2018-12-15T15:35:26.835Z,3.70
2018-12-15T15:38:11.992Z,3.70
2018-12-15T15:40:44.068Z,3.70
2018-12-15T15:43:29.189Z,3.80
2018-12-15T15:46:01.095Z,3.80
2018-12-15T15:48:46.236Z,3.70
2018-12-15T15:51:18.146Z,3.80
2018-12-15T15:54:15.323Z,3.70
2018-12-15T15:56:47.539Z,3.70
2018-12-15T15:59:29.069Z,3.70
2018-12-15T16:02:01.178Z,3.70
2018-12-15T16:04:46.986Z,3.70
2018-12-15T16:07:19.270Z,3.70
2018-12-15T16:10:05.414Z,3.70
2018-12-15T16:12:37.283Z,3.60
2018-12-15T16:15:18.374Z,3.60
2018-12-15T16:17:50.652Z,3.60
2018-12-15T16:20:32.034Z,3.60
2018-12-15T16:23:04.104Z,3.70
2018-12-15T16:25:48.938Z,3.60
2018-12-15T16:28:21.311Z,3.70
2018-12-15T16:31:03.376Z,3.70
2018-12-15T16:33:35.095Z,3.70
2018-12-15T16:36:19.892Z,3.70
2018-12-15T16:38:51.357Z,3.70
2018-12-15T16:41:42.057Z,3.70
2018-12-15T16:44:09.055Z,3.70
2018-12-15T16:46:50.546Z,3.70
2018-12-15T16:49:22.027Z,3.70
2018-12-15T16:52:04.057Z,3.70
2018-12-15T16:54:35.688Z,3.70
2018-12-15T16:57:23.302Z,3.70
2018-12-15T16:59:54.920Z,3.70
2018-12-15T17:02:37.014Z,3.70
2018-12-15T17:05:09.032Z,3.70
2018-12-15T17:07:51.499Z,3.70
2018-12-15T17:10:23.239Z,3.70
2018-12-15T17:13:05.605Z,3.70
2018-12-15T17:15:37.323Z,3.70
2018-12-15T17:18:22.054Z,3.70
2018-12-15T17:20:56.866Z,3.70
2018-12-15T17:23:40.550Z,3.70
2018-12-15T17:26:12.118Z,3.70
2018-12-15T17:28:56.888Z,3.70
2018-12-15T17:31:28.852Z,3.70
2018-12-15T17:34:13.498Z,3.70
2018-12-15T17:36:45.191Z,3.70
2018-12-15T17:39:30.067Z,3.70
2018-12-15T17:42:01.696Z,3.70
2018-12-15T17:44:43.458Z,3.70
2018-12-15T17:47:15.170Z,3.70
2018-12-15T17:50:02.965Z,3.70
2018-12-15T17:52:36.537Z,3.60
2018-12-15T17:55:17.693Z,3.60
2018-12-15T17:57:49.673Z,3.60
2018-12-15T18:00:31.676Z,3.60
2018-12-15T18:03:03.459Z,3.60
2018-12-15T18:05:44.909Z,3.60
2018-12-15T18:08:16.451Z,3.60
2018-12-15T18:11:16.898Z,3.60
2018-12-15T18:13:48.639Z,3.60
2018-12-15T18:16:33.311Z,3.60
2018-12-15T18:19:12.053Z,3.60
2018-12-15T18:21:53.469Z,3.50
2018-12-15T18:24:25.182Z,3.60
2018-12-15T18:27:06.494Z,3.50
2018-12-15T18:29:38.217Z,3.50
2018-12-15T18:32:23.002Z,3.50
2018-12-15T18:34:55.127Z,3.50
2018-12-15T18:50:47.662Z,3.50
2018-12-15T18:53:20.469Z,3.50
2018-12-15T18:56:02.211Z,3.40
2018-12-15T18:58:33.707Z,3.50
2018-12-15T19:01:18.936Z,3.40
2018-12-15T19:03:50.647Z,3.40
2018-12-15T19:06:35.430Z,3.40
2018-12-15T19:09:09.680Z,3.40
2018-12-15T19:12:08.871Z,3.40
2018-12-15T19:14:40.449Z,3.40
2018-12-15T19:17:28.255Z,3.30
2018-12-15T19:20:00.820Z,3.30
2018-12-15T19:22:46.911Z,3.20
2018-12-15T19:25:20.901Z,3.20
2018-12-15T19:28:02.341Z,3.10
2018-12-15T19:30:34.331Z,3.10
2018-12-15T19:33:28.668Z,3.00
2018-12-15T19:36:00.586Z,2.90
2018-12-15T19:51:47.171Z,2.70
2018-12-15T19:54:19.389Z,2.60
2018-12-15T19:57:00.816Z,2.60
2018-12-15T19:59:32.961Z,2.50
2018-12-15T20:15:24.940Z,2.30
2018-12-15T20:17:57.115Z,2.20
2018-12-15T20:20:42.104Z,2.20
2018-12-15T20:23:14.555Z,2.20
2018-12-15T20:25:56.216Z,2.10
2018-12-15T20:28:28.311Z,2.10
2018-12-15T20:44:11.208Z,2.00
2018-12-15T20:46:43.061Z,1.90
2018-12-15T20:49:28.273Z,1.90
2018-12-15T20:52:00.113Z,1.90
2018-12-15T20:54:51.469Z,1.90
2018-12-15T20:57:23.449Z,1.90
2018-12-15T21:00:17.686Z,1.90
2018-12-15T21:02:49.642Z,1.90
2018-12-15T21:05:21.638Z,1.90
2018-12-15T21:07:53.410Z,2.00
2018-12-15T21:10:34.678Z,2.00
2018-12-15T21:13:06.477Z,2.00
2018-12-15T21:15:57.891Z,2.00
2018-12-15T21:18:29.855Z,2.00
2018-12-15T21:21:11.491Z,2.00
2018-12-15T21:23:43.231Z,2.00
2018-12-15T21:39:41.652Z,2.20
2018-12-15T21:42:14.049Z,2.20
2018-12-15T21:44:59.404Z,2.10
2018-12-15T21:47:31.584Z,2.20
2018-12-15T21:50:13.618Z,2.20
2018-12-15T21:52:45.607Z,2.20
2018-12-15T21:55:27.604Z,2.10
2018-12-15T21:57:59.892Z,2.20
2018-12-15T22:00:45.142Z,2.20
2018-12-15T22:03:17.150Z,2.20
2018-12-15T22:05:59.302Z,2.20
2018-12-15T22:08:31.026Z,2.20
2018-12-15T22:11:12.955Z,2.20
2018-12-15T22:13:45.624Z,2.20
2018-12-15T22:16:31.724Z,2.20
2018-12-15T22:19:03.687Z,2.20
2018-12-15T22:21:49.061Z,2.20
2018-12-15T22:24:21.465Z,2.10
2018-12-15T22:27:03.504Z,2.10
2018-12-15T22:29:35.456Z,2.10
2018-12-15T22:32:17.152Z,2.10
2018-12-15T22:34:49.037Z,2.10
2018-12-15T22:37:33.492Z,2.10
2018-12-15T22:40:06.577Z,2.10
2018-12-15T22:42:47.922Z,2.10
2018-12-15T22:45:19.780Z,2.10
2018-12-15T22:48:01.293Z,2.10
2018-12-15T22:50:34.297Z,2.10
2018-12-15T22:53:16.364Z,2.10
2018-12-15T22:55:48.465Z,2.10
2018-12-15T22:58:33.693Z,2.00
2018-12-15T23:01:10.918Z,2.00
2018-12-15T23:03:54.530Z,2.00
2018-12-15T23:06:27.742Z,2.10
2018-12-15T23:09:10.067Z,2.10
2018-12-15T23:11:42.387Z,2.10
2018-12-15T23:14:27.728Z,2.10
2018-12-15T23:16:59.911Z,2.20
2018-12-15T23:19:41.818Z,2.20
2018-12-15T23:22:16.390Z,2.30
2018-12-15T23:24:57.613Z,2.30
2018-12-15T23:27:29.883Z,2.30
2018-12-15T23:30:11.639Z,2.30
2018-12-15T23:32:44.055Z,2.30
2018-12-15T23:35:25.882Z,2.30
2018-12-15T23:37:58.180Z,2.40
2018-12-15T23:40:40.045Z,2.40
2018-12-15T23:43:12.048Z,2.40
2018-12-15T23:45:53.816Z,2.40
2018-12-15T23:48:26.366Z,2.50
2018-12-15T23:51:12.526Z,2.50
2018-12-15T23:53:45.050Z,2.50
2018-12-15T23:56:26.891Z,2.50
2018-12-15T23:58:58.873Z,2.60
